Terminal Aerodrome Forecast
Issued by NWS Sterling, VA

Home | Current Version | Previous Version | Text Only | Print | Product List | Glossary On
Versions: 1 2 3 4 5 6 7 8 9 10 11 12 13 14 15 16 17 18 19 20 21 22 23 24
857
FTUS41 KLWX 061640 AAB
TAFDCA
TAF AMD
KDCA 061640Z 0617/0712 09007KT 5SM -RA BR SCT015 OVC050
     FM062100 VRB04KT 5SM -RA BR BKN004 OVC008
     FM070600 VRB04KT 6SM BR BKN008 OVC015
     FM070900 VRB04KT P6SM BKN025=

USA.gov is the U.S. government's official web portal to all federal, state and local government web resources and services.